Aviation Digital Data Service (ADDS)

Output produced by METARs form (1600 UTC 23 January 2019)
found at http://www.aviationweather.gov/metar/data/
 
Forecast for: SYCJ (GEORGETOWN/TIMEH, GY)
Text: TAF SYCJ 231102Z 2312/2412 05014KT 9999 BKN019
Forecast period: 1200 to 2300 UTC 23 January 2019
Forecast type: FROM: standard forecast or significant change
Winds: from the NE (50 degrees) at 16 MPH (14 knots; 7.2 m/s)
Visibility: 6 or more miles 10+ km)
Ceiling: 1900 feet AGL
Clouds: broken clouds at 1900 feet AGL
Weather: no significant weather forecast for this period
Text: BECMG 2323/2401 05004KT CAVOK
Forecast period: 2300 UTC 23 January 2019 to 1200 UTC 24 January 2019
Forecast type: BECOMING: Conditions expected to become as follows by 0100 UTC 24 January 2019
Winds: from the NE (50 degrees) at 5 MPH (4 knots; 2.1 m/s)
Visibility: 6 or more miles 10+ km)
Ceiling: unknown
Clouds: missing
Weather: NSW  (no significant weather)